sensor_id;sensor_type;location;lat;lon;timestamp;P1;durP1;ratioP1;P2;durP2;ratioP2
68803;SDS011;55787;52.678;13.314;2023-06-04T00:01:12;5.60;;;0.95;;
68803;SDS011;55787;52.678;13.314;2023-06-04T00:03:42;5.63;;;0.90;;
68803;SDS011;55787;52.678;13.314;2023-06-04T00:06:09;8.30;;;1.20;;
68803;SDS011;55787;52.678;13.314;2023-06-04T00:08:36;6.63;;;1.20;;
68803;SDS011;55787;52.678;13.314;2023-06-04T00:11:03;5.82;;;1.10;;
68803;SDS011;55787;52.678;13.314;2023-06-04T00:13:30;5.45;;;1.10;;
68803;SDS011;55787;52.678;13.314;2023-06-04T00:15:57;6.35;;;0.98;;
68803;SDS011;55787;52.678;13.314;2023-06-04T00:18:23;6.97;;;0.80;;
68803;SDS011;55787;52.678;13.314;2023-06-04T00:20:50;5.20;;;0.90;;
68803;SDS011;55787;52.678;13.314;2023-06-04T00:23:17;6.65;;;1.20;;
68803;SDS011;55787;52.678;13.314;2023-06-04T00:25:44;7.13;;;1.10;;
68803;SDS011;55787;52.678;13.314;2023-06-04T00:28:10;5.75;;;1.10;;
68803;SDS011;55787;52.678;13.314;2023-06-04T00:30:37;6.72;;;1.10;;
68803;SDS011;55787;52.678;13.314;2023-06-04T00:33:05;4.88;;;0.82;;
68803;SDS011;55787;52.678;13.314;2023-06-04T00:35:32;5.10;;;0.80;;
68803;SDS011;55787;52.678;13.314;2023-06-04T00:37:59;4.50;;;0.75;;
68803;SDS011;55787;52.678;13.314;2023-06-04T00:40:26;5.65;;;1.00;;
68803;SDS011;55787;52.678;13.314;2023-06-04T00:42:52;5.65;;;1.00;;
68803;SDS011;55787;52.678;13.314;2023-06-04T00:45:19;5.88;;;1.00;;
68803;SDS011;55787;52.678;13.314;2023-06-04T00:47:46;6.18;;;1.10;;
68803;SDS011;55787;52.678;13.314;2023-06-04T00:50:13;6.45;;;1.27;;
68803;SDS011;55787;52.678;13.314;2023-06-04T00:52:40;5.85;;;1.00;;
68803;SDS011;55787;52.678;13.314;2023-06-04T00:55:07;6.60;;;1.10;;
68803;SDS011;55787;52.678;13.314;2023-06-04T00:57:35;6.18;;;1.00;;
68803;SDS011;55787;52.678;13.314;2023-06-04T01:00:03;6.40;;;1.10;;
68803;SDS011;55787;52.678;13.314;2023-06-04T01:02:32;6.00;;;0.90;;
68803;SDS011;55787;52.678;13.314;2023-06-04T01:07:43;6.80;;;1.08;;
68803;SDS011;55787;52.678;13.314;2023-06-04T01:10:13;5.32;;;0.90;;
68803;SDS011;55787;52.678;13.314;2023-06-04T01:12:40;5.28;;;0.90;;
68803;SDS011;55787;52.678;13.314;2023-06-04T01:15:08;6.03;;;1.00;;
68803;SDS011;55787;52.678;13.314;2023-06-04T01:17:46;6.43;;;1.05;;
68803;SDS011;55787;52.678;13.314;2023-06-04T01:26:05;6.30;;;1.08;;
68803;SDS011;55787;52.678;13.314;2023-06-04T01:28:33;7.13;;;1.00;;
68803;SDS011;55787;52.678;13.314;2023-06-04T01:31:01;6.40;;;1.17;;
68803;SDS011;55787;52.678;13.314;2023-06-04T01:33:30;8.27;;;1.15;;
68803;SDS011;55787;52.678;13.314;2023-06-04T01:35:57;6.20;;;1.10;;
68803;SDS011;55787;52.678;13.314;2023-06-04T01:38:24;8.07;;;1.00;;
68803;SDS011;55787;52.678;13.314;2023-06-04T01:40:51;6.03;;;1.13;;
68803;SDS011;55787;52.678;13.314;2023-06-04T01:43:22;7.20;;;0.93;;
68803;SDS011;55787;52.678;13.314;2023-06-04T01:45:50;6.55;;;1.00;;
68803;SDS011;55787;52.678;13.314;2023-06-04T01:48:16;5.75;;;1.10;;
68803;SDS011;55787;52.678;13.314;2023-06-04T01:50:44;6.35;;;1.00;;
68803;SDS011;55787;52.678;13.314;2023-06-04T01:53:10;5.20;;;0.88;;
68803;SDS011;55787;52.678;13.314;2023-06-04T01:55:37;5.95;;;1.10;;
68803;SDS011;55787;52.678;13.314;2023-06-04T01:58:04;5.57;;;1.00;;
68803;SDS011;55787;52.678;13.314;2023-06-04T02:00:31;6.00;;;1.02;;
68803;SDS011;55787;52.678;13.314;2023-06-04T02:02:57;7.05;;;0.88;;
68803;SDS011;55787;52.678;13.314;2023-06-04T02:05:26;6.68;;;1.10;;
68803;SDS011;55787;52.678;13.314;2023-06-04T02:07:53;5.30;;;0.90;;
68803;SDS011;55787;52.678;13.314;2023-06-04T02:10:19;5.55;;;1.00;;
68803;SDS011;55787;52.678;13.314;2023-06-04T02:12:59;5.80;;;1.00;;
68803;SDS011;55787;52.678;13.314;2023-06-04T02:15:29;5.80;;;1.10;;
68803;SDS011;55787;52.678;13.314;2023-06-04T02:17:58;7.30;;;1.15;;
68803;SDS011;55787;52.678;13.314;2023-06-04T02:20:26;5.20;;;1.10;;
68803;SDS011;55787;52.678;13.314;2023-06-04T02:22:56;5.93;;;1.13;;
68803;SDS011;55787;52.678;13.314;2023-06-04T02:25:23;6.82;;;1.02;;
68803;SDS011;55787;52.678;13.314;2023-06-04T02:27:50;7.40;;;1.30;;
68803;SDS011;55787;52.678;13.314;2023-06-04T02:30:16;8.25;;;1.20;;
68803;SDS011;55787;52.678;13.314;2023-06-04T02:32:43;6.80;;;1.25;;
68803;SDS011;55787;52.678;13.314;2023-06-04T02:35:16;6.63;;;1.30;;
68803;SDS011;55787;52.678;13.314;2023-06-04T02:37:44;6.03;;;0.93;;
68803;SDS011;55787;52.678;13.314;2023-06-04T02:40:10;6.30;;;1.02;;
68803;SDS011;55787;52.678;13.314;2023-06-04T02:42:38;6.22;;;1.17;;
68803;SDS011;55787;52.678;13.314;2023-06-04T02:45:04;7.45;;;1.40;;
68803;SDS011;55787;52.678;13.314;2023-06-04T02:47:32;6.75;;;1.20;;
68803;SDS011;55787;52.678;13.314;2023-06-04T02:49:58;7.90;;;1.10;;
68803;SDS011;55787;52.678;13.314;2023-06-04T02:52:25;7.70;;;1.15;;
68803;SDS011;55787;52.678;13.314;2023-06-04T02:54:52;6.55;;;1.08;;
68803;SDS011;55787;52.678;13.314;2023-06-04T02:57:19;6.15;;;1.10;;
68803;SDS011;55787;52.678;13.314;2023-06-04T02:59:45;6.78;;;1.20;;
68803;SDS011;55787;52.678;13.314;2023-06-04T03:02:12;5.82;;;1.20;;
68803;SDS011;55787;52.678;13.314;2023-06-04T03:04:41;5.95;;;0.90;;
68803;SDS011;55787;52.678;13.314;2023-06-04T03:07:09;5.63;;;0.95;;
68803;SDS011;55787;52.678;13.314;2023-06-04T03:09:37;6.03;;;1.10;;
68803;SDS011;55787;52.678;13.314;2023-06-04T03:12:04;5.72;;;1.17;;
68803;SDS011;55787;52.678;13.314;2023-06-04T03:14:32;6.28;;;1.05;;
68803;SDS011;55787;52.678;13.314;2023-06-04T03:16:59;6.03;;;1.20;;
68803;SDS011;55787;52.678;13.314;2023-06-04T03:19:34;7.15;;;1.23;;
68803;SDS011;55787;52.678;13.314;2023-06-04T03:22:02;5.88;;;1.10;;
68803;SDS011;55787;52.678;13.314;2023-06-04T03:24:35;6.18;;;1.13;;
68803;SDS011;55787;52.678;13.314;2023-06-04T03:27:04;5.90;;;1.10;;
68803;SDS011;55787;52.678;13.314;2023-06-04T03:29:31;7.20;;;1.20;;
68803;SDS011;55787;52.678;13.314;2023-06-04T03:31:59;5.50;;;1.02;;
68803;SDS011;55787;52.678;13.314;2023-06-04T03:34:26;6.15;;;1.30;;
68803;SDS011;55787;52.678;13.314;2023-06-04T03:36:54;5.82;;;1.13;;
68803;SDS011;55787;52.678;13.314;2023-06-04T03:39:21;6.20;;;1.20;;
68803;SDS011;55787;52.678;13.314;2023-06-04T03:41:48;7.22;;;1.40;;
68803;SDS011;55787;52.678;13.314;2023-06-04T03:44:15;9.65;;;1.48;;
68803;SDS011;55787;52.678;13.314;2023-06-04T03:46:43;6.55;;;1.20;;
68803;SDS011;55787;52.678;13.314;2023-06-04T03:49:11;5.78;;;1.10;;
68803;SDS011;55787;52.678;13.314;2023-06-04T03:51:41;5.80;;;1.20;;
68803;SDS011;55787;52.678;13.314;2023-06-04T03:54:07;6.00;;;1.25;;
68803;SDS011;55787;52.678;13.314;2023-06-04T03:56:34;5.80;;;1.20;;
68803;SDS011;55787;52.678;13.314;2023-06-04T03:59:01;8.63;;;1.20;;
68803;SDS011;55787;52.678;13.314;2023-06-04T04:01:28;7.30;;;1.10;;
68803;SDS011;55787;52.678;13.314;2023-06-04T04:03:55;7.78;;;1.13;;
68803;SDS011;55787;52.678;13.314;2023-06-04T04:06:22;9.13;;;1.40;;
68803;SDS011;55787;52.678;13.314;2023-06-04T04:08:49;7.53;;;1.35;;
68803;SDS011;55787;52.678;13.314;2023-06-04T04:11:15;7.03;;;1.30;;
68803;SDS011;55787;52.678;13.314;2023-06-04T04:13:45;7.10;;;1.23;;
68803;SDS011;55787;52.678;13.314;2023-06-04T04:16:13;6.78;;;1.10;;
68803;SDS011;55787;52.678;13.314;2023-06-04T04:18:41;7.18;;;1.30;;
68803;SDS011;55787;52.678;13.314;2023-06-04T04:21:10;7.10;;;1.15;;
68803;SDS011;55787;52.678;13.314;2023-06-04T04:23:37;7.72;;;1.30;;
68803;SDS011;55787;52.678;13.314;2023-06-04T04:26:08;6.57;;;1.30;;
68803;SDS011;55787;52.678;13.314;2023-06-04T04:28:36;6.15;;;1.10;;
68803;SDS011;55787;52.678;13.314;2023-06-04T04:31:04;6.22;;;1.05;;
68803;SDS011;55787;52.678;13.314;2023-06-04T04:33:31;6.43;;;1.40;;
68803;SDS011;55787;52.678;13.314;2023-06-04T04:35:59;6.70;;;1.17;;
68803;SDS011;55787;52.678;13.314;2023-06-04T04:38:26;5.78;;;1.10;;
68803;SDS011;55787;52.678;13.314;2023-06-04T04:40:54;6.45;;;1.00;;
68803;SDS011;55787;52.678;13.314;2023-06-04T04:43:31;6.72;;;1.20;;
68803;SDS011;55787;52.678;13.314;2023-06-04T04:45:59;5.65;;;1.10;;
68803;SDS011;55787;52.678;13.314;2023-06-04T04:48:26;6.55;;;1.38;;
68803;SDS011;55787;52.678;13.314;2023-06-04T04:50:53;7.15;;;1.20;;
68803;SDS011;55787;52.678;13.314;2023-06-04T04:53:20;5.97;;;1.15;;
68803;SDS011;55787;52.678;13.314;2023-06-04T04:55:46;5.93;;;1.00;;
68803;SDS011;55787;52.678;13.314;2023-06-04T04:58:13;5.30;;;1.02;;
68803;SDS011;55787;52.678;13.314;2023-06-04T05:00:40;5.93;;;1.10;;
68803;SDS011;55787;52.678;13.314;2023-06-04T05:03:07;6.65;;;1.10;;
68803;SDS011;55787;52.678;13.314;2023-06-04T05:05:34;7.78;;;1.20;;
68803;SDS011;55787;52.678;13.314;2023-06-04T05:08:00;6.10;;;1.00;;
68803;SDS011;55787;52.678;13.314;2023-06-04T05:10:27;5.20;;;1.00;;
68803;SDS011;55787;52.678;13.314;2023-06-04T05:12:54;5.63;;;1.00;;
68803;SDS011;55787;52.678;13.314;2023-06-04T05:15:25;5.65;;;1.00;;
68803;SDS011;55787;52.678;13.314;2023-06-04T05:17:52;6.03;;;1.00;;
68803;SDS011;55787;52.678;13.314;2023-06-04T05:20:19;6.13;;;0.85;;
68803;SDS011;55787;52.678;13.314;2023-06-04T05:22:47;5.38;;;1.02;;
68803;SDS011;55787;52.678;13.314;2023-06-04T05:25:14;7.40;;;1.00;;
68803;SDS011;55787;52.678;13.314;2023-06-04T05:27:42;6.00;;;1.17;;
68803;SDS011;55787;52.678;13.314;2023-06-04T05:30:09;5.32;;;1.00;;
68803;SDS011;55787;52.678;13.314;2023-06-04T05:32:37;6.35;;;0.90;;
68803;SDS011;55787;52.678;13.314;2023-06-04T05:35:07;5.00;;;0.80;;
68803;SDS011;55787;52.678;13.314;2023-06-04T05:37:34;8.35;;;1.00;;
68803;SDS011;55787;52.678;13.314;2023-06-04T05:40:04;6.15;;;1.10;;
68803;SDS011;55787;52.678;13.314;2023-06-04T05:42:32;4.95;;;0.80;;
68803;SDS011;55787;52.678;13.314;2023-06-04T05:44:58;5.82;;;1.10;;
68803;SDS011;55787;52.678;13.314;2023-06-04T05:47:26;8.32;;;1.60;;
68803;SDS011;55787;52.678;13.314;2023-06-04T05:49:55;6.85;;;1.73;;
68803;SDS011;55787;52.678;13.314;2023-06-04T05:52:22;7.00;;;1.05;;
68803;SDS011;55787;52.678;13.314;2023-06-04T05:54:50;6.97;;;1.08;;
68803;SDS011;55787;52.678;13.314;2023-06-04T05:57:16;5.55;;;0.85;;
68803;SDS011;55787;52.678;13.314;2023-06-04T05:59:43;6.20;;;0.80;;
68803;SDS011;55787;52.678;13.314;2023-06-04T06:02:10;4.70;;;0.63;;
68803;SDS011;55787;52.678;13.314;2023-06-04T06:04:36;5.80;;;0.80;;
68803;SDS011;55787;52.678;13.314;2023-06-04T06:07:04;6.05;;;0.77;;
68803;SDS011;55787;52.678;13.314;2023-06-04T06:09:31;6.20;;;0.80;;
68803;SDS011;55787;52.678;13.314;2023-06-04T06:11:58;4.78;;;0.70;;
68803;SDS011;55787;52.678;13.314;2023-06-04T06:14:25;5.45;;;0.70;;
68803;SDS011;55787;52.678;13.314;2023-06-04T06:16:51;6.10;;;0.90;;
68803;SDS011;55787;52.678;13.314;2023-06-04T06:19:19;5.10;;;0.80;;
68803;SDS011;55787;52.678;13.314;2023-06-04T06:21:46;4.53;;;0.80;;
68803;SDS011;55787;52.678;13.314;2023-06-04T06:24:13;5.30;;;1.00;;
68803;SDS011;55787;52.678;13.314;2023-06-04T06:26:40;5.82;;;1.10;;
68803;SDS011;55787;52.678;13.314;2023-06-04T06:29:07;5.60;;;1.00;;
68803;SDS011;55787;52.678;13.314;2023-06-04T06:31:33;4.88;;;1.05;;
68803;SDS011;55787;52.678;13.314;2023-06-04T06:34:00;5.65;;;1.20;;
68803;SDS011;55787;52.678;13.314;2023-06-04T06:36:27;5.88;;;1.40;;
68803;SDS011;55787;52.678;13.314;2023-06-04T06:38:54;6.05;;;1.40;;
68803;SDS011;55787;52.678;13.314;2023-06-04T06:41:21;5.77;;;1.40;;
68803;SDS011;55787;52.678;13.314;2023-06-04T06:43:48;5.88;;;1.20;;
68803;SDS011;55787;52.678;13.314;2023-06-04T06:46:14;5.32;;;1.33;;
68803;SDS011;55787;52.678;13.314;2023-06-04T06:48:41;5.40;;;1.17;;
68803;SDS011;55787;52.678;13.314;2023-06-04T06:51:11;6.65;;;1.33;;
68803;SDS011;55787;52.678;13.314;2023-06-04T06:53:38;7.68;;;1.40;;
68803;SDS011;55787;52.678;13.314;2023-06-04T06:56:06;5.88;;;1.45;;
68803;SDS011;55787;52.678;13.314;2023-06-04T06:58:33;5.68;;;1.42;;
68803;SDS011;55787;52.678;13.314;2023-06-04T07:01:02;5.70;;;1.48;;
68803;SDS011;55787;52.678;13.314;2023-06-04T07:03:29;5.22;;;1.30;;
68803;SDS011;55787;52.678;13.314;2023-06-04T07:05:56;4.93;;;1.30;;
68803;SDS011;55787;52.678;13.314;2023-06-04T07:08:23;7.75;;;1.92;;
68803;SDS011;55787;52.678;13.314;2023-06-04T07:10:49;6.25;;;1.63;;
68803;SDS011;55787;52.678;13.314;2023-06-04T07:13:16;5.50;;;1.40;;
68803;SDS011;55787;52.678;13.314;2023-06-04T07:15:43;6.60;;;1.40;;
68803;SDS011;55787;52.678;13.314;2023-06-04T07:18:09;5.45;;;1.60;;
68803;SDS011;55787;52.678;13.314;2023-06-04T07:20:36;5.72;;;1.98;;
68803;SDS011;55787;52.678;13.314;2023-06-04T07:23:03;5.35;;;1.90;;
68803;SDS011;55787;52.678;13.314;2023-06-04T07:25:30;5.55;;;1.63;;
68803;SDS011;55787;52.678;13.314;2023-06-04T07:27:56;5.78;;;1.70;;
68803;SDS011;55787;52.678;13.314;2023-06-04T07:30:24;5.97;;;2.00;;
68803;SDS011;55787;52.678;13.314;2023-06-04T07:32:52;6.22;;;1.67;;
68803;SDS011;55787;52.678;13.314;2023-06-04T07:35:18;5.38;;;1.90;;
68803;SDS011;55787;52.678;13.314;2023-06-04T07:37:46;5.68;;;1.90;;
68803;SDS011;55787;52.678;13.314;2023-06-04T07:40:15;8.20;;;1.70;;
68803;SDS011;55787;52.678;13.314;2023-06-04T07:42:42;5.53;;;1.80;;
68803;SDS011;55787;52.678;13.314;2023-06-04T07:45:09;5.10;;;1.88;;
68803;SDS011;55787;52.678;13.314;2023-06-04T07:47:36;5.20;;;1.88;;
68803;SDS011;55787;52.678;13.314;2023-06-04T07:50:04;5.55;;;1.63;;
68803;SDS011;55787;52.678;13.314;2023-06-04T07:52:32;5.20;;;1.83;;
68803;SDS011;55787;52.678;13.314;2023-06-04T07:54:59;12.52;;;1.83;;
68803;SDS011;55787;52.678;13.314;2023-06-04T07:57:26;5.57;;;1.70;;
68803;SDS011;55787;52.678;13.314;2023-06-04T07:59:53;6.00;;;2.22;;
68803;SDS011;55787;52.678;13.314;2023-06-04T08:02:20;5.22;;;1.70;;
68803;SDS011;55787;52.678;13.314;2023-06-04T08:04:47;5.85;;;2.13;;
68803;SDS011;55787;52.678;13.314;2023-06-04T08:07:14;5.95;;;1.70;;
68803;SDS011;55787;52.678;13.314;2023-06-04T08:09:41;6.43;;;1.83;;
68803;SDS011;55787;52.678;13.314;2023-06-04T08:12:08;6.28;;;2.17;;
68803;SDS011;55787;52.678;13.314;2023-06-04T08:14:36;5.63;;;1.98;;
68803;SDS011;55787;52.678;13.314;2023-06-04T08:17:03;6.55;;;2.03;;
68803;SDS011;55787;52.678;13.314;2023-06-04T08:19:30;5.25;;;1.92;;
68803;SDS011;55787;52.678;13.314;2023-06-04T08:21:56;5.80;;;2.15;;
68803;SDS011;55787;52.678;13.314;2023-06-04T08:24:23;6.25;;;1.98;;
68803;SDS011;55787;52.678;13.314;2023-06-04T08:26:50;5.10;;;1.83;;
68803;SDS011;55787;52.678;13.314;2023-06-04T08:29:16;5.38;;;2.17;;
68803;SDS011;55787;52.678;13.314;2023-06-04T08:31:43;5.75;;;2.08;;
68803;SDS011;55787;52.678;13.314;2023-06-04T08:34:10;5.32;;;2.10;;
68803;SDS011;55787;52.678;13.314;2023-06-04T08:36:37;6.95;;;2.08;;
68803;SDS011;55787;52.678;13.314;2023-06-04T08:39:03;5.57;;;1.90;;
68803;SDS011;55787;52.678;13.314;2023-06-04T08:44:16;5.22;;;1.85;;
68803;SDS011;55787;52.678;13.314;2023-06-04T08:46:43;5.63;;;1.90;;
68803;SDS011;55787;52.678;13.314;2023-06-04T08:49:11;5.93;;;1.88;;
68803;SDS011;55787;52.678;13.314;2023-06-04T08:51:39;6.85;;;2.22;;
68803;SDS011;55787;52.678;13.314;2023-06-04T08:54:07;7.07;;;2.30;;
68803;SDS011;55787;52.678;13.314;2023-06-04T08:56:35;5.63;;;2.03;;
68803;SDS011;55787;52.678;13.314;2023-06-04T08:59:03;5.22;;;2.40;;
68803;SDS011;55787;52.678;13.314;2023-06-04T09:01:33;5.45;;;2.13;;
68803;SDS011;55787;52.678;13.314;2023-06-04T09:04:01;5.18;;;1.80;;
68803;SDS011;55787;52.678;13.314;2023-06-04T09:06:32;5.22;;;1.88;;
68803;SDS011;55787;52.678;13.314;2023-06-04T09:09:00;5.78;;;2.38;;
68803;SDS011;55787;52.678;13.314;2023-06-04T09:11:35;6.00;;;2.45;;
68803;SDS011;55787;52.678;13.314;2023-06-04T09:14:13;5.45;;;2.20;;
68803;SDS011;55787;52.678;13.314;2023-06-04T09:16:46;6.35;;;2.33;;
68803;SDS011;55787;52.678;13.314;2023-06-04T09:19:17;7.15;;;2.60;;
68803;SDS011;55787;52.678;13.314;2023-06-04T09:21:48;5.07;;;2.10;;
68803;SDS011;55787;52.678;13.314;2023-06-04T09:24:23;5.78;;;2.47;;
68803;SDS011;55787;52.678;13.314;2023-06-04T09:26:51;6.25;;;2.67;;
68803;SDS011;55787;52.678;13.314;2023-06-04T09:29:18;5.35;;;2.30;;
68803;SDS011;55787;52.678;13.314;2023-06-04T09:31:45;6.28;;;2.25;;
68803;SDS011;55787;52.678;13.314;2023-06-04T09:34:13;5.60;;;2.15;;
68803;SDS011;55787;52.678;13.314;2023-06-04T09:36:43;6.32;;;2.50;;
68803;SDS011;55787;52.678;13.314;2023-06-04T09:39:16;5.20;;;2.30;;
68803;SDS011;55787;52.678;13.314;2023-06-04T09:44:44;5.28;;;2.00;;
68803;SDS011;55787;52.678;13.314;2023-06-04T09:47:14;6.30;;;1.98;;
68803;SDS011;55787;52.678;13.314;2023-06-04T09:49:45;5.85;;;2.08;;
68803;SDS011;55787;52.678;13.314;2023-06-04T09:52:13;5.72;;;1.83;;
68803;SDS011;55787;52.678;13.314;2023-06-04T09:54:41;5.25;;;2.28;;
68803;SDS011;55787;52.678;13.314;2023-06-04T09:57:14;5.07;;;1.92;;
68803;SDS011;55787;52.678;13.314;2023-06-04T09:59:48;5.60;;;2.50;;
68803;SDS011;55787;52.678;13.314;2023-06-04T10:02:19;5.22;;;2.28;;
68803;SDS011;55787;52.678;13.314;2023-06-04T10:04:53;6.20;;;2.40;;
68803;SDS011;55787;52.678;13.314;2023-06-04T10:07:25;5.68;;;2.25;;
68803;SDS011;55787;52.678;13.314;2023-06-04T10:09:53;5.35;;;2.30;;
68803;SDS011;55787;52.678;13.314;2023-06-04T10:12:23;6.07;;;2.40;;
68803;SDS011;55787;52.678;13.314;2023-06-04T10:14:56;6.20;;;2.45;;
68803;SDS011;55787;52.678;13.314;2023-06-04T10:17:28;6.13;;;2.20;;
68803;SDS011;55787;52.678;13.314;2023-06-04T10:19:56;5.60;;;2.50;;
68803;SDS011;55787;52.678;13.314;2023-06-04T10:22:25;5.70;;;2.53;;
68803;SDS011;55787;52.678;13.314;2023-06-04T10:24:52;5.35;;;2.10;;
68803;SDS011;55787;52.678;13.314;2023-06-04T10:27:19;5.55;;;2.10;;
68803;SDS011;55787;52.678;13.314;2023-06-04T10:29:46;5.40;;;2.08;;
68803;SDS011;55787;52.678;13.314;2023-06-04T10:32:14;6.68;;;2.00;;
68803;SDS011;55787;52.678;13.314;2023-06-04T10:34:41;5.78;;;2.00;;
68803;SDS011;55787;52.678;13.314;2023-06-04T10:37:20;5.20;;;2.15;;
68803;SDS011;55787;52.678;13.314;2023-06-04T10:39:57;6.55;;;1.98;;
68803;SDS011;55787;52.678;13.314;2023-06-04T10:42:25;5.53;;;2.10;;
68803;SDS011;55787;52.678;13.314;2023-06-04T10:44:52;5.55;;;1.70;;
68803;SDS011;55787;52.678;13.314;2023-06-04T10:47:24;5.07;;;1.75;;
68803;SDS011;55787;52.678;13.314;2023-06-04T10:49:53;5.25;;;2.00;;
68803;SDS011;55787;52.678;13.314;2023-06-04T10:52:21;5.53;;;1.95;;
68803;SDS011;55787;52.678;13.314;2023-06-04T10:54:48;6.75;;;2.08;;
68803;SDS011;55787;52.678;13.314;2023-06-04T10:57:16;6.18;;;2.03;;
68803;SDS011;55787;52.678;13.314;2023-06-04T10:59:53;6.65;;;1.90;;
68803;SDS011;55787;52.678;13.314;2023-06-04T11:02:21;5.82;;;2.20;;
68803;SDS011;55787;52.678;13.314;2023-06-04T11:04:58;6.78;;;2.25;;
68803;SDS011;55787;52.678;13.314;2023-06-04T11:07:45;5.55;;;2.28;;
68803;SDS011;55787;52.678;13.314;2023-06-04T11:10:13;5.82;;;1.80;;
68803;SDS011;55787;52.678;13.314;2023-06-04T11:12:42;5.30;;;1.75;;
68803;SDS011;55787;52.678;13.314;2023-06-04T11:15:10;5.50;;;1.40;;
68803;SDS011;55787;52.678;13.314;2023-06-04T11:17:37;5.00;;;1.55;;
68803;SDS011;55787;52.678;13.314;2023-06-04T11:20:04;5.80;;;1.80;;
68803;SDS011;55787;52.678;13.314;2023-06-04T11:22:41;5.40;;;1.65;;
68803;SDS011;55787;52.678;13.314;2023-06-04T11:25:08;4.65;;;1.50;;
68803;SDS011;55787;52.678;13.314;2023-06-04T11:27:35;5.57;;;2.08;;
68803;SDS011;55787;52.678;13.314;2023-06-04T11:30:03;5.05;;;1.50;;
68803;SDS011;55787;52.678;13.314;2023-06-04T11:32:33;5.57;;;2.17;;
68803;SDS011;55787;52.678;13.314;2023-06-04T11:35:03;5.78;;;2.20;;
68803;SDS011;55787;52.678;13.314;2023-06-04T11:37:31;5.03;;;1.60;;
68803;SDS011;55787;52.678;13.314;2023-06-04T11:39:59;5.72;;;1.70;;
68803;SDS011;55787;52.678;13.314;2023-06-04T11:42:27;5.90;;;1.77;;
68803;SDS011;55787;52.678;13.314;2023-06-04T11:44:58;5.53;;;1.65;;
68803;SDS011;55787;52.678;13.314;2023-06-04T11:47:25;6.10;;;1.70;;
68803;SDS011;55787;52.678;13.314;2023-06-04T11:49:55;4.97;;;1.50;;
68803;SDS011;55787;52.678;13.314;2023-06-04T11:52:24;6.15;;;1.52;;
68803;SDS011;55787;52.678;13.314;2023-06-04T11:54:51;6.32;;;1.70;;
68803;SDS011;55787;52.678;13.314;2023-06-04T11:57:18;5.25;;;1.98;;
68803;SDS011;55787;52.678;13.314;2023-06-04T11:59:45;5.32;;;1.80;;
68803;SDS011;55787;52.678;13.314;2023-06-04T12:02:12;5.53;;;1.58;;
68803;SDS011;55787;52.678;13.314;2023-06-04T12:04:38;5.75;;;1.60;;
68803;SDS011;55787;52.678;13.314;2023-06-04T12:07:05;5.40;;;1.95;;
68803;SDS011;55787;52.678;13.314;2023-06-04T12:09:32;6.40;;;1.63;;
68803;SDS011;55787;52.678;13.314;2023-06-04T12:12:02;5.75;;;1.52;;
68803;SDS011;55787;52.678;13.314;2023-06-04T12:14:30;5.10;;;1.70;;
68803;SDS011;55787;52.678;13.314;2023-06-04T12:16:58;5.22;;;1.50;;
68803;SDS011;55787;52.678;13.314;2023-06-04T12:19:47;5.10;;;1.80;;
68803;SDS011;55787;52.678;13.314;2023-06-04T12:22:15;4.70;;;1.42;;
68803;SDS011;55787;52.678;13.314;2023-06-04T12:27:20;5.68;;;1.70;;
68803;SDS011;55787;52.678;13.314;2023-06-04T12:30:09;5.80;;;1.60;;
68803;SDS011;55787;52.678;13.314;2023-06-04T12:32:37;6.38;;;2.15;;
68803;SDS011;55787;52.678;13.314;2023-06-04T12:35:04;5.85;;;1.70;;
68803;SDS011;55787;52.678;13.314;2023-06-04T12:37:31;5.18;;;1.88;;
68803;SDS011;55787;52.678;13.314;2023-06-04T12:39:58;6.22;;;1.65;;
68803;SDS011;55787;52.678;13.314;2023-06-04T12:42:24;6.07;;;1.80;;
68803;SDS011;55787;52.678;13.314;2023-06-04T12:44:51;6.18;;;1.63;;
68803;SDS011;55787;52.678;13.314;2023-06-04T12:47:18;5.63;;;1.60;;
68803;SDS011;55787;52.678;13.314;2023-06-04T12:49:44;5.80;;;1.70;;
68803;SDS011;55787;52.678;13.314;2023-06-04T12:52:11;5.93;;;1.67;;
68803;SDS011;55787;52.678;13.314;2023-06-04T12:54:41;5.80;;;1.67;;
68803;SDS011;55787;52.678;13.314;2023-06-04T12:57:08;5.18;;;1.40;;
68803;SDS011;55787;52.678;13.314;2023-06-04T12:59:35;6.78;;;1.50;;
68803;SDS011;55787;52.678;13.314;2023-06-04T13:02:02;5.47;;;1.40;;
68803;SDS011;55787;52.678;13.314;2023-06-04T13:04:29;4.70;;;1.15;;
68803;SDS011;55787;52.678;13.314;2023-06-04T13:06:55;5.22;;;1.52;;
68803;SDS011;55787;52.678;13.314;2023-06-04T13:09:25;4.80;;;1.40;;
68803;SDS011;55787;52.678;13.314;2023-06-04T13:11:54;7.43;;;1.30;;
68803;SDS011;55787;52.678;13.314;2023-06-04T13:14:21;5.30;;;1.30;;
68803;SDS011;55787;52.678;13.314;2023-06-04T13:16:47;4.60;;;1.00;;
68803;SDS011;55787;52.678;13.314;2023-06-04T13:19:15;6.28;;;1.30;;
68803;SDS011;55787;52.678;13.314;2023-06-04T13:21:42;5.40;;;1.05;;
68803;SDS011;55787;52.678;13.314;2023-06-04T13:24:09;5.60;;;1.10;;
68803;SDS011;55787;52.678;13.314;2023-06-04T13:26:37;5.18;;;1.08;;
68803;SDS011;55787;52.678;13.314;2023-06-04T13:29:05;5.20;;;1.10;;
68803;SDS011;55787;52.678;13.314;2023-06-04T13:31:32;4.70;;;1.02;;
68803;SDS011;55787;52.678;13.314;2023-06-04T13:33:58;6.07;;;1.02;;
68803;SDS011;55787;52.678;13.314;2023-06-04T13:36:31;6.75;;;1.20;;
68803;SDS011;55787;52.678;13.314;2023-06-04T13:38:58;5.03;;;1.20;;
68803;SDS011;55787;52.678;13.314;2023-06-04T13:41:24;5.00;;;1.10;;
68803;SDS011;55787;52.678;13.314;2023-06-04T13:43:52;4.93;;;1.10;;
68803;SDS011;55787;52.678;13.314;2023-06-04T13:46:19;5.25;;;1.10;;
68803;SDS011;55787;52.678;13.314;2023-06-04T13:48:46;5.18;;;0.90;;
68803;SDS011;55787;52.678;13.314;2023-06-04T13:51:12;5.72;;;1.10;;
68803;SDS011;55787;52.678;13.314;2023-06-04T13:53:39;5.25;;;1.10;;
68803;SDS011;55787;52.678;13.314;2023-06-04T13:56:06;4.70;;;1.00;;
68803;SDS011;55787;52.678;13.314;2023-06-04T13:58:32;4.72;;;0.90;;
68803;SDS011;55787;52.678;13.314;2023-06-04T14:00:59;5.85;;;1.40;;
68803;SDS011;55787;52.678;13.314;2023-06-04T14:03:26;5.05;;;0.98;;
68803;SDS011;55787;52.678;13.314;2023-06-04T14:05:52;5.10;;;1.17;;
68803;SDS011;55787;52.678;13.314;2023-06-04T14:08:19;6.63;;;1.10;;
68803;SDS011;55787;52.678;13.314;2023-06-04T14:10:46;5.90;;;1.10;;
68803;SDS011;55787;52.678;13.314;2023-06-04T14:13:12;5.50;;;1.33;;
68803;SDS011;55787;52.678;13.314;2023-06-04T14:15:39;5.20;;;1.17;;
68803;SDS011;55787;52.678;13.314;2023-06-04T14:18:06;5.32;;;1.20;;
68803;SDS011;55787;52.678;13.314;2023-06-04T14:20:34;7.03;;;0.97;;
68803;SDS011;55787;52.678;13.314;2023-06-04T14:23:00;5.10;;;1.20;;
68803;SDS011;55787;52.678;13.314;2023-06-04T14:25:27;6.47;;;1.13;;
68803;SDS011;55787;52.678;13.314;2023-06-04T14:27:54;5.30;;;1.10;;
68803;SDS011;55787;52.678;13.314;2023-06-04T14:30:21;5.22;;;1.10;;
68803;SDS011;55787;52.678;13.314;2023-06-04T14:32:47;4.77;;;1.10;;
68803;SDS011;55787;52.678;13.314;2023-06-04T14:35:14;5.45;;;1.33;;
68803;SDS011;55787;52.678;13.314;2023-06-04T14:37:41;5.45;;;1.08;;
68803;SDS011;55787;52.678;13.314;2023-06-04T14:40:08;5.20;;;1.17;;
68803;SDS011;55787;52.678;13.314;2023-06-04T14:42:35;4.70;;;0.90;;
68803;SDS011;55787;52.678;13.314;2023-06-04T14:45:02;6.03;;;1.10;;
68803;SDS011;55787;52.678;13.314;2023-06-04T14:47:29;7.45;;;1.10;;
68803;SDS011;55787;52.678;13.314;2023-06-04T14:49:56;4.45;;;0.80;;
68803;SDS011;55787;52.678;13.314;2023-06-04T14:52:23;5.28;;;1.05;;
68803;SDS011;55787;52.678;13.314;2023-06-04T14:54:49;4.70;;;0.90;;